Time;durP1;ratioP1;P1;durP2;ratioP2;P2;SDS_P1;SDS_P2;PMS_P1;PMS_P2;Temp;Humidity;BMP_temperature;BMP_pressure;BME280_temperature;BME280_humidity;BME280_pressure;Samples;Min_cycle;Max_cycle;Signal;HPM_P1;HPM_P2
2024/01/17 00:01:42;;;;;;;;;12.67;12.67;;;;;3.96;52.91;99784.69;5111359;27;67075;-50
2024/01/17 00:04:08;;;;;;;;;14.00;12.33;;;;;3.96;53.04;99779.44;5108020;27;45402;-51
2024/01/17 00:06:33;;;;;;;;;12.67;12.67;;;;;3.89;53.29;99777.09;5116941;27;45411;-50
2024/01/17 00:08:58;;;;;;;;;17.67;14.00;;;;;3.85;53.57;99778.97;5119035;27;50396;-51
2024/01/17 00:11:24;;;;;;;;;16.67;13.67;;;;;3.86;53.64;99764.03;5109882;27;70942;-50
2024/01/17 00:13:49;;;;;;;;;22.25;15.25;;;;;3.88;53.63;99759.59;5117709;27;71490;-51
2024/01/17 00:16:23;;;;;;;;;13.33;10.33;;;;;3.88;53.43;99749.06;5117348;27;68792;-51
2024/01/17 00:18:48;;;;;;;;;12.67;9.33;;;;;3.91;53.73;99741.03;5116854;27;46389;-49
2024/01/17 00:21:14;;;;;;;;;13.67;10.33;;;;;3.95;53.48;99742.63;5119696;27;45408;-51
2024/01/17 00:23:39;;;;;;;;;12.00;7.67;;;;;3.97;53.71;99741.66;5119583;27;45701;-50
2024/01/17 00:26:05;;;;;;;;;27.25;20.00;;;;;3.99;53.74;99728.47;5113163;27;45396;-51
2024/01/17 00:28:30;;;;;;;;;14.33;10.00;;;;;3.98;54.04;99718.84;5113475;27;45412;-50
2024/01/17 00:30:57;;;;;;;;;18.00;13.67;;;;;4.01;53.91;99717.88;5113477;27;56178;-52
2024/01/17 00:33:22;;;;;;;;;18.33;13.67;;;;;4.04;53.64;99713.34;5114028;27;45306;-51
2024/01/17 00:35:48;;;;;;;;;17.67;14.67;;;;;4.07;53.90;99710.56;5108748;27;45262;-47
2024/01/17 00:38:13;;;;;;;;;17.00;12.00;;;;;4.04;54.08;99697.56;5117789;27;45956;-48
2024/01/17 00:40:38;;;;;;;;;12.00;12.00;;;;;4.07;54.02;99688.69;5115256;27;51145;-50
2024/01/17 00:43:03;;;;;;;;;14.00;9.67;;;;;4.10;54.69;99683.28;5112016;27;63668;-58
2024/01/17 00:45:29;;;;;;;;;17.33;11.33;;;;;4.09;54.65;99671.03;5118975;27;70564;-51
2024/01/17 00:47:54;;;;;;;;;17.33;15.00;;;;;4.07;54.85;99668.47;5117916;27;45617;-52
2024/01/17 00:50:19;;;;;;;;;19.33;16.00;;;;;4.07;55.25;99665.00;5112192;27;73141;-49
2024/01/17 00:52:45;;;;;;;;;16.67;14.00;;;;;4.07;54.90;99654.47;5118465;27;45496;-51
2024/01/17 00:55:11;;;;;;;;;21.33;13.00;;;;;4.03;55.52;99661.63;5106860;27;45511;-51
2024/01/17 00:57:36;;;;;;;;;13.67;10.33;;;;;4.00;55.57;99661.72;5105682;27;47098;-49
2024/01/17 01:00:02;;;;;;;;;14.00;13.00;;;;;4.02;55.84;99659.06;5110796;27;45399;-49
2024/01/17 01:02:27;;;;;;;;;16.67;15.00;;;;;4.06;55.78;99639.59;5118441;27;45487;-49
2024/01/17 01:04:52;;;;;;;;;13.67;13.00;;;;;4.04;56.41;99631.75;5107374;27;69687;-51
2024/01/17 01:07:18;;;;;;;;;14.67;14.67;;;;;4.00;56.94;99630.16;5108903;27;46343;-51
2024/01/17 01:09:43;;;;;;;;;11.67;10.00;;;;;4.03;56.89;99626.53;5106013;27;59176;-50
2024/01/17 01:12:08;;;;;;;;;16.00;13.00;;;;;4.05;57.31;99619.44;5118230;27;45559;-49
2024/01/17 01:14:34;;;;;;;;;16.33;14.00;;;;;4.07;57.06;99620.25;5116019;27;67326;-48
2024/01/17 01:16:59;;;;;;;;;12.67;10.67;;;;;4.09;57.00;99603.47;5117438;27;46196;-48
2024/01/17 01:19:24;;;;;;;;;19.33;14.00;;;;;4.12;57.07;99603.34;5141379;27;65625;-48
2024/01/17 01:21:50;;;;;;;;;18.00;15.00;;;;;4.13;57.76;99601.53;5115910;27;62080;-47
2024/01/17 01:24:15;;;;;;;;;18.00;15.00;;;;;4.03;57.54;99589.69;5118432;27;68828;-48
2024/01/17 01:26:40;;;;;;;;;19.00;19.00;;;;;3.99;57.55;99581.09;5116049;27;60145;-47
2024/01/17 01:29:06;;;;;;;;;7.00;7.00;;;;;3.99;58.01;99575.84;5118941;27;45377;-49
2024/01/17 01:31:31;;;;;;;;;19.33;16.00;;;;;3.98;58.36;99569.69;5116401;27;61387;-49
2024/01/17 01:33:56;;;;;;;;;19.00;16.67;;;;;3.97;58.60;99559.25;5116488;27;45396;-48
2024/01/17 01:36:22;;;;;;;;;16.33;14.00;;;;;3.96;58.27;99549.63;5110103;27;74562;-47
2024/01/17 01:38:47;;;;;;;;;13.33;11.67;;;;;3.97;59.03;99541.66;5102039;27;54228;-51
2024/01/17 01:41:12;;;;;;;;;14.33;11.33;;;;;4.02;59.07;99549.38;5114281;27;62604;-48
2024/01/17 01:43:38;;;;;;;;;11.00;11.00;;;;;4.04;59.13;99542.28;5117354;27;70458;-51
2024/01/17 01:46:03;;;;;;;;;14.33;11.33;;;;;4.08;59.64;99529.84;5117629;27;46599;-48
2024/01/17 01:48:28;;;;;;;;;15.33;13.67;;;;;4.06;59.37;99527.28;5106971;27;46360;-47
2024/01/17 01:50:54;;;;;;;;;14.33;14.33;;;;;4.07;59.37;99521.09;5115237;27;59065;-48
2024/01/17 01:53:19;;;;;;;;;10.00;10.00;;;;;4.10;59.77;99520.09;5119886;27;70351;-49
2024/01/17 01:55:45;;;;;;;;;18.67;14.33;;;;;4.12;59.91;99508.59;5109463;27;74949;-47
2024/01/17 01:58:10;;;;;;;;;14.33;12.33;;;;;4.12;59.21;99511.22;5115828;27;45673;-50
2024/01/17 02:00:36;;;;;;;;;13.67;10.67;;;;;4.13;59.50;99499.78;5110683;27;62540;-48
2024/01/17 02:03:01;;;;;;;;;21.67;15.67;;;;;4.14;59.72;99496.19;5111960;27;69404;-47
2024/01/17 02:05:27;;;;;;;;;18.00;14.00;;;;;4.16;60.33;99490.88;5119950;27;47113;-49
2024/01/17 02:07:53;;;;;;;;;18.00;16.33;;;;;4.16;60.13;99488.25;5119178;27;72042;-51
2024/01/17 02:10:18;;;;;;;;;19.33;17.67;;;;;4.17;60.33;99476.78;5109473;27;69763;-48
2024/01/17 02:12:44;;;;;;;;;10.00;8.67;;;;;4.14;60.10;99461.13;5120713;27;61394;-52
2024/01/17 02:15:09;;;;;;;;;13.33;11.67;;;;;4.12;60.75;99461.22;5121038;27;46021;-51
2024/01/17 02:17:34;;;;;;;;;16.00;13.33;;;;;4.12;61.01;99453.31;5120477;27;71504;-51
2024/01/17 02:20:00;;;;;;;;;18.67;16.00;;;;;4.13;60.65;99441.00;5118959;27;65021;-51
2024/01/17 02:22:25;;;;;;;;;17.33;14.33;;;;;4.14;60.96;99432.19;5115076;27;68296;-49
2024/01/17 02:24:50;;;;;;;;;15.00;12.00;;;;;4.14;61.30;99429.56;5115712;27;74515;-50
2024/01/17 02:27:16;;;;;;;;;22.25;19.00;;;;;4.13;60.10;99412.91;5119339;27;58172;-50
2024/01/17 02:29:45;;;;;;;;;21.50;14.75;;;;;4.06;60.96;99414.09;5120643;27;45361;-49
2024/01/17 02:32:10;;;;;;;;;14.33;14.33;;;;;4.01;61.24;99399.47;5115741;27;45439;-52
2024/01/17 02:34:36;;;;;;;;;21.67;12.67;;;;;3.99;60.96;99396.91;5118989;27;75161;-49
2024/01/17 02:37:01;;;;;;;;;15.00;14.33;;;;;3.97;61.71;99393.47;5111121;27;45962;-50
2024/01/17 02:39:26;;;;;;;;;20.00;20.00;;;;;3.91;61.47;99384.09;5116898;27;45814;-48
2024/01/17 02:41:52;;;;;;;;;18.67;15.33;;;;;3.87;63.08;99379.03;5116120;27;62396;-51
2024/01/17 02:44:17;;;;;;;;;18.00;15.67;;;;;3.86;62.30;99375.56;5114020;27;47044;-47
2024/01/17 02:46:43;;;;;;;;;17.00;16.00;;;;;3.87;62.83;99368.50;5118184;27;64456;-48
2024/01/17 02:49:08;;;;;;;;;14.67;12.67;;;;;3.82;62.85;99371.34;5117270;27;69417;-48
2024/01/17 02:51:33;;;;;;;;;14.67;13.33;;;;;3.81;62.77;99372.28;5118080;27;45443;-50
2024/01/17 02:53:58;;;;;;;;;26.67;20.00;;;;;3.80;61.96;99366.13;5119843;27;75564;-47
2024/01/17 02:56:24;;;;;;;;;22.00;17.67;;;;;3.75;62.60;99351.50;5116189;27;72279;-51
2024/01/17 02:58:50;;;;;;;;;20.00;17.33;;;;;3.72;62.76;99356.91;5117009;27;45255;-51
2024/01/17 03:01:15;;;;;;;;;20.00;12.00;;;;;3.69;63.67;99350.00;5116530;27;45728;-48
2024/01/17 03:03:41;;;;;;;;;12.33;12.33;;;;;3.71;63.70;99342.88;5112055;27;75574;-51
2024/01/17 03:06:06;;;;;;;;;22.00;14.33;;;;;3.70;63.48;99338.53;5110334;27;45395;-47
2024/01/17 03:08:32;;;;;;;;;22.00;16.00;;;;;3.69;63.59;99339.50;5117573;27;69221;-48
2024/01/17 03:10:57;;;;;;;;;16.00;16.00;;;;;3.68;64.22;99329.00;5119224;27;61899;-51
2024/01/17 03:13:22;;;;;;;;;18.00;14.50;;;;;3.70;64.58;99327.19;5117478;27;74466;-47
2024/01/17 03:15:48;;;;;;;;;17.00;16.33;;;;;3.71;65.42;99319.22;5120414;27;45271;-50
2024/01/17 03:18:13;;;;;;;;;20.67;13.33;;;;;3.73;65.07;99312.13;5115966;27;69047;-49
2024/01/17 03:20:40;;;;;;;;;20.67;13.67;;;;;3.76;65.15;99305.88;5116652;27;47355;-50
2024/01/17 03:23:06;;;;;;;;;17.33;15.00;;;;;3.77;65.11;99297.91;5115047;27;46372;-50
2024/01/17 03:25:31;;;;;;;;;17.25;14.00;;;;;3.81;65.08;99303.88;5116165;27;45494;-55
2024/01/17 03:27:56;;;;;;;;;14.00;13.00;;;;;3.81;64.73;99296.00;5120322;27;45395;-49
2024/01/17 03:30:22;;;;;;;;;10.67;10.67;;;;;3.84;65.30;99287.94;5110190;27;70435;-48
2024/01/17 03:32:47;;;;;;;;;19.33;14.33;;;;;3.85;65.32;99284.41;5118713;27;70895;-51
2024/01/17 03:35:12;;;;;;;;;16.67;13.00;;;;;3.85;66.09;99279.13;5114713;27;60883;-50
2024/01/17 03:37:38;;;;;;;;;19.00;15.67;;;;;3.86;65.77;99274.72;5116380;27;45488;-50
2024/01/17 03:40:03;;;;;;;;;18.67;13.00;;;;;3.86;65.38;99259.81;5104811;27;45287;-52
2024/01/17 03:42:29;;;;;;;;;17.67;13.33;;;;;3.88;65.68;99254.47;5116390;27;45365;-49
2024/01/17 03:44:54;;;;;;;;;19.00;13.67;;;;;3.85;65.88;99239.69;5110278;27;73181;-49
2024/01/17 03:47:19;;;;;;;;;13.67;10.33;;;;;3.84;66.37;99235.34;5117861;27;68546;-50
2024/01/17 03:49:45;;;;;;;;;16.00;14.00;;;;;3.84;65.64;99221.34;5109804;27;66581;-52
2024/01/17 03:52:10;;;;;;;;;27.00;20.00;;;;;3.83;65.76;99219.63;5110087;27;66475;-51
2024/01/17 03:54:38;;;;;;;;;19.67;14.67;;;;;3.81;65.96;99214.44;5113859;27;74185;-51
2024/01/17 03:57:04;;;;;;;;;22.00;15.33;;;;;3.81;66.01;99198.66;5116764;27;45441;-52
2024/01/17 03:59:29;;;;;;;;;17.25;15.25;;;;;3.80;65.79;99191.69;5117584;27;45665;-48
2024/01/17 04:01:55;;;;;;;;;17.00;13.67;;;;;3.76;66.50;99183.09;5116661;27;46867;-50
2024/01/17 04:04:20;;;;;;;;;15.33;15.33;;;;;3.70;66.44;99180.75;5116079;27;45560;-50
2024/01/17 04:06:45;;;;;;;;;21.33;15.33;;;;;3.64;66.80;99170.53;5116863;27;62853;-49
2024/01/17 04:09:11;;;;;;;;;16.33;13.33;;;;;3.61;66.28;99161.00;5119295;27;67060;-52
2024/01/17 04:11:36;;;;;;;;;20.00;16.00;;;;;3.57;66.50;99150.69;5115983;27;46894;-50
2024/01/17 04:14:02;;;;;;;;;18.67;14.67;;;;;3.50;67.69;99144.88;5115050;27;45807;-49
2024/01/17 04:16:27;;;;;;;;;17.67;16.33;;;;;3.45;67.36;99139.81;5120400;27;45400;-51
2024/01/17 04:18:53;;;;;;;;;20.00;18.25;;;;;3.41;66.99;99130.38;5112551;27;45344;-51
2024/01/17 04:21:19;;;;;;;;;17.00;16.00;;;;;3.41;68.44;99119.03;5114415;27;75400;-49
2024/01/17 04:23:46;;;;;;;;;20.00;14.00;;;;;3.41;68.16;99116.41;5114560;27;45385;-50
2024/01/17 04:26:25;;;;;;;;;15.67;14.33;;;;;3.40;68.28;99105.03;5114985;27;45420;-49
2024/01/17 04:28:51;;;;;;;;;19.67;16.67;;;;;3.40;67.94;99091.03;5119172;27;45385;-51
2024/01/17 04:31:24;;;;;;;;;17.33;15.33;;;;;3.40;67.82;99089.28;5113496;27;45491;-49
2024/01/17 04:33:50;;;;;;;;;26.75;18.00;;;;;3.41;67.98;99080.44;5117282;27;45626;-48
2024/01/17 04:36:16;;;;;;;;;22.33;15.00;;;;;3.39;68.18;99069.16;5115854;27;45491;-51
2024/01/17 04:38:42;;;;;;;;;16.67;15.33;;;;;3.38;68.50;99059.56;5114134;27;45479;-51
2024/01/17 04:41:08;;;;;;;;;20.00;14.75;;;;;3.35;68.26;99054.47;5114934;27;45455;-51
2024/01/17 04:43:34;;;;;;;;;22.50;17.00;;;;;3.34;68.76;99044.00;5113084;27;45407;-52
2024/01/17 04:45:59;;;;;;;;;35.50;22.25;;;;;3.32;69.62;99044.09;5119324;27;45631;-48
2024/01/17 04:48:25;;;;;;;;;14.33;13.33;;;;;3.30;69.20;99032.81;5112863;27;70462;-53
2024/01/17 04:50:52;;;;;;;;;20.33;16.00;;;;;3.30;69.00;99024.94;5108638;27;73920;-52
2024/01/17 04:53:17;;;;;;;;;16.00;14.00;;;;;3.27;68.82;99018.03;5112935;27;45375;-50
2024/01/17 04:55:43;;;;;;;;;18.33;13.67;;;;;3.27;68.92;99010.16;5139987;27;45418;-51
2024/01/17 04:58:08;;;;;;;;;16.33;14.00;;;;;3.26;69.35;99003.19;5113760;27;56476;-51
2024/01/17 05:00:33;;;;;;;;;23.00;18.00;;;;;3.26;68.82;98990.06;5116892;27;53098;-52
2024/01/17 05:02:59;;;;;;;;;35.00;23.00;;;;;3.24;68.85;98989.25;5111889;27;59809;-51
2024/01/17 05:05:24;;;;;;;;;26.00;20.25;;;;;3.17;69.35;98993.13;5117570;27;70315;-51
2024/01/17 05:07:49;;;;;;;;;22.75;18.25;;;;;3.09;69.43;98984.75;5106654;27;45547;-51
2024/01/17 05:10:15;;;;;;;;;20.50;19.50;;;;;3.05;70.40;98991.94;5117897;27;71221;-48
2024/01/17 05:12:40;;;;;;;;;22.50;18.25;;;;;3.06;70.37;98996.25;5115641;27;60606;-51
2024/01/17 05:15:06;;;;;;;;;20.00;16.25;;;;;3.08;69.95;98994.41;5115992;27;54453;-49
2024/01/17 05:17:31;;;;;;;;;14.75;12.25;;;;;3.10;70.49;98984.69;5117528;27;45412;-49
2024/01/17 05:19:56;;;;;;;;;20.25;17.50;;;;;3.14;70.81;98990.63;5114300;27;72127;-47
2024/01/17 05:22:21;;;;;;;;;22.00;14.00;;;;;3.19;71.24;98995.69;5102596;27;73225;-48
2024/01/17 05:24:47;;;;;;;;;16.67;15.00;;;;;3.22;70.84;98996.38;5113178;27;69361;-51
2024/01/17 05:27:12;;;;;;;;;15.33;12.00;;;;;3.25;70.58;98985.72;5119893;27;60706;-51
2024/01/17 05:29:43;;;;;;;;;20.00;15.00;;;;;3.27;70.11;98986.50;5121953;27;74563;-48
2024/01/17 05:32:09;;;;;;;;;15.67;14.67;;;;;3.24;70.91;98973.50;5116879;27;45381;-50
2024/01/17 05:34:34;;;;;;;;;15.00;13.67;;;;;3.22;70.65;98967.47;5115163;27;45523;-49
2024/01/17 05:36:59;;;;;;;;;13.33;9.33;;;;;3.24;71.41;98959.53;5113972;27;68364;-51
2024/01/17 05:39:25;;;;;;;;;14.67;14.67;;;;;3.27;71.30;98951.47;5113829;27;69377;-49
2024/01/17 05:41:50;;;;;;;;;11.67;10.00;;;;;3.29;71.25;98947.00;5112570;27;63295;-47
2024/01/17 05:44:15;;;;;;;;;15.00;13.00;;;;;3.29;71.62;98936.50;5117067;27;45521;-49
2024/01/17 05:46:41;;;;;;;;;15.00;13.00;;;;;3.30;71.29;98925.06;5122079;27;45599;-50
2024/01/17 05:49:06;;;;;;;;;19.67;17.33;;;;;3.32;71.06;98923.19;5120426;27;56733;-52
2024/01/17 05:51:31;;;;;;;;;16.33;15.67;;;;;3.30;71.76;98915.38;5117993;27;45494;-51
2024/01/17 05:53:58;;;;;;;;;17.33;13.00;;;;;3.31;71.73;98903.09;5120316;27;45401;-48
2024/01/17 05:56:23;;;;;;;;;18.00;14.33;;;;;3.31;71.73;98897.81;5122486;27;45626;-50
2024/01/17 05:58:49;;;;;;;;;15.67;15.00;;;;;3.31;72.02;98895.19;5121817;27;46640;-51
2024/01/17 06:01:14;;;;;;;;;16.00;14.67;;;;;3.30;71.30;98886.47;5117637;27;45827;-52
2024/01/17 06:03:40;;;;;;;;;14.67;14.00;;;;;3.31;71.54;98889.94;5119395;27;61118;-53
2024/01/17 06:06:06;;;;;;;;;21.00;17.33;;;;;3.29;71.68;98873.41;5114131;27;45498;-48
2024/01/17 06:08:31;;;;;;;;;13.00;12.33;;;;;3.26;71.46;98866.53;5120289;27;73288;-52
2024/01/17 06:10:56;;;;;;;;;16.33;12.33;;;;;3.27;72.76;98862.13;5114881;27;72157;-50
2024/01/17 06:13:22;;;;;;;;;22.50;20.00;;;;;3.26;72.42;98847.28;5119971;27;63757;-51
2024/01/17 06:15:47;;;;;;;;;19.00;14.67;;;;;3.25;72.48;98848.22;5118897;27;45225;-51
2024/01/17 06:18:13;;;;;;;;;14.67;12.67;;;;;3.25;72.59;98835.09;5113581;27;74613;-52
2024/01/17 06:20:38;;;;;;;;;14.00;11.00;;;;;3.22;72.72;98830.84;5114157;27;61337;-51
2024/01/17 06:23:04;;;;;;;;;14.25;12.75;;;;;3.24;73.08;98807.09;5118018;27;68844;-50
2024/01/17 06:25:29;;;;;;;;;20.25;16.50;;;;;3.22;73.83;98806.31;5115812;27;45606;-52
2024/01/17 06:27:56;;;;;;;;;13.25;12.75;;;;;3.22;73.25;98803.69;5120380;27;74502;-52
2024/01/17 06:30:22;;;;;;;;;13.67;12.33;;;;;3.20;73.01;98797.69;5117525;27;45657;-52
2024/01/17 06:32:47;;;;;;;;;17.00;14.00;;;;;3.22;73.02;98795.81;5112556;27;45359;-52
2024/01/17 06:35:12;;;;;;;;;13.67;10.67;;;;;3.24;72.67;98786.91;5118806;27;45586;-52
2024/01/17 06:37:38;;;;;;;;;12.00;10.67;;;;;3.26;72.59;98779.81;5120126;27;46034;-53
2024/01/17 06:40:04;;;;;;;;;18.67;13.00;;;;;3.29;73.38;98770.94;5109283;27;45866;-52
2024/01/17 06:42:29;;;;;;;;;14.67;12.67;;;;;3.28;72.33;98762.19;5114385;27;45730;-51
2024/01/17 06:44:54;;;;;;;;;23.67;15.67;;;;;3.28;72.58;98758.72;5109395;27;70901;-51
2024/01/17 06:47:20;;;;;;;;;20.67;14.67;;;;;3.27;73.45;98759.63;5107269;27;46966;-50
2024/01/17 06:49:45;;;;;;;;;15.67;13.00;;;;;3.25;73.61;98751.00;5119106;27;45355;-49
2024/01/17 06:52:11;;;;;;;;;18.67;14.33;;;;;3.26;72.98;98748.28;5119211;27;45519;-52
2024/01/17 06:54:36;;;;;;;;;18.67;15.00;;;;;3.26;73.38;98744.78;5118914;27;45463;-52
2024/01/17 06:57:02;;;;;;;;;14.00;12.67;;;;;3.26;73.34;98737.78;5120353;27;46058;-53
2024/01/17 06:59:27;;;;;;;;;19.00;13.00;;;;;3.28;74.80;98733.25;5116334;27;45433;-52
2024/01/17 07:01:53;;;;;;;;;30.75;18.75;;;;;3.30;73.75;98728.78;5118944;27;57658;-53
2024/01/17 07:04:19;;;;;;;;;18.33;16.33;;;;;3.29;74.70;98734.13;5117321;27;45306;-52
2024/01/17 07:06:44;;;;;;;;;15.33;14.00;;;;;3.29;74.21;98734.97;5110592;27;63107;-52
2024/01/17 07:09:10;;;;;;;;;15.00;12.00;;;;;3.31;74.71;98729.63;5114145;27;73561;-49
2024/01/17 07:11:37;;;;;;;;;17.33;13.00;;;;;3.33;74.68;98732.19;5119465;27;45400;-52
2024/01/17 07:14:03;;;;;;;;;16.33;13.00;;;;;3.31;74.55;98735.75;5116465;27;45366;-50
2024/01/17 07:16:28;;;;;;;;;16.00;12.25;;;;;3.30;74.93;98735.84;5112736;27;45501;-51
2024/01/17 07:18:55;;;;;;;;;12.67;8.33;;;;;3.30;74.44;98720.91;5111293;27;45729;-52
2024/01/17 07:21:21;;;;;;;;;13.75;13.75;;;;;3.34;75.05;98713.72;5112382;27;45397;-53
2024/01/17 07:23:46;;;;;;;;;11.25;9.25;;;;;3.36;75.16;98696.06;5109349;27;45374;-51
2024/01/17 07:26:12;;;;;;;;;13.50;12.00;;;;;3.37;75.07;98689.06;5105501;27;45555;-53
2024/01/17 07:28:37;;;;;;;;;15.67;10.00;;;;;3.37;75.17;98676.75;5117810;27;45517;-55
2024/01/17 07:31:02;;;;;;;;;11.75;11.00;;;;;3.38;75.62;98670.56;5114765;27;45436;-52
2024/01/17 07:33:28;;;;;;;;;15.25;11.50;;;;;3.36;75.30;98667.16;5117575;27;45531;-53
2024/01/17 07:35:53;;;;;;;;;17.00;13.50;;;;;3.36;76.19;98674.22;5100776;27;62215;-53
2024/01/17 07:38:18;;;;;;;;;14.50;9.25;;;;;3.35;76.35;98676.00;5114580;27;51985;-53
2024/01/17 07:40:44;;;;;;;;;15.25;13.50;;;;;3.34;75.84;98666.41;5108377;27;56447;-51
2024/01/17 07:43:09;;;;;;;;;11.25;9.25;;;;;3.31;76.37;98659.53;5111709;27;45415;-53
2024/01/17 07:45:34;;;;;;;;;12.50;9.50;;;;;3.29;75.71;98643.00;5110786;27;46018;-52
2024/01/17 07:48:00;;;;;;;;;14.33;9.67;;;;;3.29;76.92;98637.75;5109790;27;45372;-51
2024/01/17 07:50:26;;;;;;;;;13.75;12.25;;;;;3.27;76.00;98637.00;5109586;27;68278;-51
2024/01/17 07:52:52;;;;;;;;;16.25;13.00;;;;;3.25;76.72;98624.88;5111073;27;45361;-52
2024/01/17 07:55:17;;;;;;;;;14.25;11.25;;;;;3.22;77.36;98610.13;5114426;27;46185;-50
2024/01/17 07:57:43;;;;;;;;;13.75;10.00;;;;;3.21;78.25;98599.69;5105447;27;45550;-51
2024/01/17 08:00:08;;;;;;;;;12.33;8.67;;;;;3.19;78.60;98605.00;5112355;27;68214;-49
2024/01/17 08:02:34;;;;;;;;;16.50;12.75;;;;;3.14;100.00;98625.44;5111756;27;45613;-53
2024/01/17 08:05:00;;;;;;;;;9.00;9.00;;;;;3.12;91.45;98650.94;5104229;27;46137;-53
2024/01/17 08:07:26;;;;;;;;;13.50;12.25;;;;;3.12;85.42;98646.53;5104339;27;48228;-51
2024/01/17 08:09:52;;;;;;;;;9.25;9.25;;;;;3.11;85.52;98622.97;5112974;27;45341;-49
2024/01/17 08:12:18;;;;;;;;;11.50;11.25;;;;;3.11;86.45;98600.16;5110404;27;45287;-51
2024/01/17 08:14:43;;;;;;;;;14.25;11.50;;;;;3.16;84.16;98589.44;5110785;27;46411;-52
2024/01/17 08:17:08;;;;;;;;;14.33;13.00;;;;;3.17;84.38;98571.88;5109677;27;68819;-50
2024/01/17 08:19:34;;;;;;;;;8.33;8.33;;;;;3.11;84.85;98573.91;5105957;27;61033;-51
2024/01/17 08:21:59;;;;;;;;;9.67;9.00;;;;;3.09;85.96;98567.03;5107978;27;45471;-51
2024/01/17 08:24:24;;;;;;;;;15.67;12.67;;;;;3.07;86.19;98550.53;5106208;27;50862;-53
2024/01/17 08:26:50;;;;;;;;;12.33;8.67;;;;;3.09;86.29;98548.66;5104656;27;73292;-53
2024/01/17 08:29:17;;;;;;;;;11.33;7.00;;;;;3.13;86.84;98544.94;5105284;27;61342;-54
2024/01/17 08:31:42;;;;;;;;;14.00;9.00;;;;;3.19;84.59;98547.22;5112519;27;45568;-54
2024/01/17 08:34:08;;;;;;;;;9.00;9.00;;;;;3.23;84.16;98553.97;5107392;27;45416;-52
2024/01/17 08:36:33;;;;;;;;;12.00;10.00;;;;;3.23;83.50;98540.84;5108285;27;45521;-55
2024/01/17 08:38:59;;;;;;;;;17.67;10.00;;;;;3.21;85.82;98547.97;5117453;27;52353;-54
2024/01/17 08:41:24;;;;;;;;;11.33;7.00;;;;;3.22;85.92;98539.19;5117469;27;67862;-55
2024/01/17 08:43:49;;;;;;;;;7.33;7.33;;;;;3.26;86.78;98535.44;5111341;27;47021;-53
2024/01/17 08:46:15;;;;;;;;;8.67;8.67;;;;;3.29;85.54;98521.28;5110809;27;71956;-53
2024/01/17 08:48:41;;;;;;;;;9.00;7.33;;;;;3.29;86.41;98519.50;5102253;27;45405;-55
2024/01/17 08:51:08;;;;;;;;;13.00;6.67;;;;;3.31;86.27;98511.50;5105667;27;45352;-54
2024/01/17 08:53:34;;;;;;;;;10.67;9.33;;;;;3.33;86.31;98493.88;5115207;27;46374;-55
2024/01/17 08:56:01;;;;;;;;;9.67;9.00;;;;;3.37;86.02;98499.81;5109684;27;45455;-56
2024/01/17 08:58:27;;;;;;;;;8.00;8.00;;;;;3.37;86.88;98489.31;5113780;27;45554;-53
2024/01/17 09:00:52;;;;;;;;;8.67;7.00;;;;;3.36;86.63;98480.56;5111056;27;46037;-56
2024/01/17 09:03:18;;;;;;;;;9.00;7.00;;;;;3.37;87.31;98473.53;5108626;27;46131;-54
2024/01/17 09:05:43;;;;;;;;;10.33;9.00;;;;;3.40;85.62;98478.59;5108841;27;45491;-56
2024/01/17 09:08:09;;;;;;;;;7.33;6.00;;;;;3.41;85.61;98459.28;5110844;27;45539;-57
2024/01/17 09:10:34;;;;;;;;;8.67;7.00;;;;;3.44;86.09;98456.47;5117933;27;45444;-55
2024/01/17 09:13:00;;;;;;;;;11.67;8.00;;;;;3.47;85.72;98454.50;5096230;27;45341;-55
2024/01/17 09:15:25;;;;;;;;;7.00;5.67;;;;;3.48;86.47;98455.34;5112448;27;45435;-56
2024/01/17 09:17:51;;;;;;;;;6.33;6.33;;;;;3.45;88.59;98452.91;5119139;27;45438;-54
2024/01/17 09:20:17;;;;;;;;;12.33;8.33;;;;;3.45;89.02;98451.13;5101088;27;45327;-56
2024/01/17 09:22:42;;;;;;;;;10.00;6.33;;;;;3.45;87.34;98437.97;5112339;27;45478;-56
2024/01/17 09:25:10;;;;;;;;;10.00;6.33;;;;;3.50;87.19;98442.16;5116743;27;47137;-55
2024/01/17 09:27:36;;;;;;;;;14.33;13.00;;;;;3.55;87.79;98435.66;5113795;27;45467;-56
2024/01/17 09:30:02;;;;;;;;;9.00;7.67;;;;;3.60;86.84;98438.88;5113954;27;45397;-55
2024/01/17 09:32:27;;;;;;;;;11.67;8.00;;;;;3.64;87.31;98426.41;5114543;27;46509;-55
2024/01/17 09:34:53;;;;;;;;;10.67;9.67;;;;;3.68;86.62;98429.66;5109635;27;70539;-55
2024/01/17 09:37:18;;;;;;;;;8.67;7.00;;;;;3.68;86.92;98430.53;5103760;27;66453;-55
2024/01/17 09:39:43;;;;;;;;;11.67;10.00;;;;;3.70;86.26;98431.28;5107659;27;45457;-54
2024/01/17 09:42:09;;;;;;;;;7.00;7.00;;;;;3.73;86.04;98427.63;5112403;27;45381;-55
2024/01/17 09:44:35;;;;;;;;;7.00;5.33;;;;;3.77;86.55;98416.84;5108655;27;45429;-56
2024/01/17 09:47:01;;;;;;;;;12.00;9.33;;;;;3.84;86.31;98419.94;5113400;27;46443;-56
2024/01/17 09:49:29;;;;;;;;;15.00;10.00;;;;;3.86;85.42;98418.06;5117542;27;45810;-55
2024/01/17 09:51:55;;;;;;;;;10.00;10.00;;;;;3.91;85.28;98412.53;5116353;27;45442;-55
2024/01/17 09:54:24;;;;;;;;;8.33;7.67;;;;;3.92;85.93;98416.84;5117397;27;45496;-55
2024/01/17 09:56:50;;;;;;;;;7.67;7.67;;;;;3.96;85.25;98402.56;5116902;27;45405;-54
2024/01/17 09:59:17;;;;;;;;;11.33;8.67;;;;;4.00;85.48;98404.06;5111078;27;45465;-52
2024/01/17 10:01:43;;;;;;;;;9.00;8.67;;;;;4.00;85.00;98400.59;5118023;27;45580;-53
2024/01/17 10:04:11;;;;;;;;;8.00;8.00;;;;;4.00;85.04;98401.44;5105725;27;45581;-54
2024/01/17 10:06:39;;;;;;;;;7.00;7.00;;;;;4.05;85.88;98374.84;5105704;27;45500;-54
2024/01/17 10:09:06;;;;;;;;;11.00;7.00;;;;;4.05;86.17;98375.69;5114712;27;45515;-54
2024/01/17 10:11:31;;;;;;;;;8.00;8.00;;;;;4.03;85.49;98385.47;5104323;27;46180;-54
2024/01/17 10:13:57;;;;;;;;;9.33;9.33;;;;;4.03;86.16;98377.59;5116303;27;45469;-56
2024/01/17 10:16:25;;;;;;;;;10.67;10.67;;;;;3.98;86.98;98359.44;5119665;27;45506;-55
2024/01/17 10:18:51;;;;;;;;;10.00;8.75;;;;;3.90;88.01;98360.88;5110918;27;45456;-55
2024/01/17 10:21:16;;;;;;;;;8.33;8.00;;;;;3.78;87.32;98354.56;5114990;27;74006;-55
2024/01/17 10:23:42;;;;;;;;;10.33;9.67;;;;;3.75;87.18;98357.38;5111175;27;45590;-55
2024/01/17 10:26:07;;;;;;;;;8.00;8.00;;;;;3.71;88.29;98324.34;5111369;27;53349;-55
2024/01/17 10:28:33;;;;;;;;;8.00;6.33;;;;;3.66;89.06;98321.13;5119298;27;45403;-53
2024/01/17 10:31:00;;;;;;;;;9.67;9.00;;;;;3.66;90.91;98323.75;5109257;27;46890;-56
2024/01/17 10:33:27;;;;;;;;;13.00;9.00;;;;;3.58;99.84;98324.22;5114426;27;45330;-55
2024/01/17 10:35:52;;;;;;;;;8.33;8.33;;;;;3.55;100.00;98327.88;5108494;27;45614;-54
2024/01/17 10:38:18;;;;;;;;;12.75;12.75;;;;;3.60;100.00;98323.19;5109022;27;45263;-55
2024/01/17 10:40:44;;;;;;;;;8.67;8.33;;;;;3.62;100.00;98342.38;5110569;27;47187;-56
2024/01/17 10:43:10;;;;;;;;;7.00;6.00;;;;;3.67;100.00;98335.97;5112456;27;45153;-55
2024/01/17 10:45:37;;;;;;;;;12.33;8.67;;;;;3.70;100.00;98333.97;5108545;27;45712;-55
2024/01/17 10:48:04;;;;;;;;;13.33;8.67;;;;;3.72;100.00;98332.13;5109032;27;45760;-55
2024/01/17 10:50:29;;;;;;;;;7.00;7.00;;;;;3.74;100.00;98318.88;5119482;27;47765;-56
2024/01/17 10:53:08;;;;;;;;;10.67;9.00;;;;;3.78;100.00;98318.59;5112210;27;45409;-54
2024/01/17 10:55:35;;;;;;;;;8.33;8.33;;;;;3.84;100.00;98312.09;5104500;27;45367;-55
2024/01/17 10:58:06;;;;;;;;;8.33;6.67;;;;;3.87;96.95;98311.94;5116013;27;45731;-55
2024/01/17 11:00:34;;;;;;;;;7.67;7.00;;;;;3.89;93.09;98302.16;5097758;27;47143;-53
2024/01/17 11:03:00;;;;;;;;;13.25;9.00;;;;;3.91;91.41;98291.53;5105581;27;45331;-55
2024/01/17 11:05:32;;;;;;;;;12.67;10.00;;;;;3.94;91.04;98294.00;5112539;27;45410;-55
2024/01/17 11:07:59;;;;;;;;;14.00;12.33;;;;;3.97;90.10;98291.16;5116628;27;45556;-56
2024/01/17 11:10:25;;;;;;;;;11.67;10.00;;;;;3.97;88.95;98288.53;5117386;27;46350;-55
2024/01/17 11:12:52;;;;;;;;;8.67;8.67;;;;;4.00;89.23;98282.22;5113645;27;45463;-55
2024/01/17 11:15:18;;;;;;;;;7.00;6.67;;;;;4.04;88.72;98288.97;5113444;27;45776;-55
2024/01/17 11:17:45;;;;;;;;;10.00;9.00;;;;;4.07;88.39;98267.75;5107701;27;45507;-55
2024/01/17 11:20:12;;;;;;;;;9.00;9.00;;;;;4.09;88.56;98273.75;5111411;27;46368;-55
2024/01/17 11:22:39;;;;;;;;;10.33;9.33;;;;;4.12;89.46;98266.50;5104959;27;46499;-55